Airfield :
LOGIN :

Register | Disclaimer

   EN    FR    IT 

 










Legend :    VFR   Marginal VFR   IFR   Intensive IFR   Very Intensive IFR
Visi :
Ceiling :
>= 8 km
>= 3000ft
5 to 8 km
1000 to 3000 ft
1500m to 5 km
500 to 1000 ft
800 to 1500m
200 to 500 ft
< 800m
< 200 ft
Symbols :   Thunderstorms  Fog  Heavy snow  Heavy precipitations  Wind > 20 kt
SIGMETs :     Misc.  Thunderstorms  Icing  Turbulence  Mountain Waves  Volcanic Ashes






- Airport Elevation : 20 ft


EBFN - Koksijde

CURRENT METAR :
  • 200003Z AUTO 19003KT 3800 BR SCT057/// BKN170/// 09/08 Q1006 GRN

EXPIRED METARs :
  • 192325Z AUTO 21004KT 6000 FEW055/// BKN180/// 09/08 Q1006 WHT
  • 192308Z AUTO VRB02KT 7000 FEW064/// SCT074/// 09/08 Q1006 WHT
  • 192255Z AUTO 20003KT 9000 SCT064/// 09/09 Q1006 BLU
  • 192225Z AUTO 19003KT 9999 SCT087/// 09/09 Q1006 BLU
  • 192155Z AUTO 21005KT 9999 BKN170/// BKN210/// 10/09 Q1006 BLU
  • 192125Z AUTO 22004KT 9999 BKN180/// 10/09 Q1006 BLU

TAF TAF EBFN
Valid from the 19 at 19:00 until the 20 at 07:00 UTC


191541Z 1919/2007 21008KT 9999 SCT025 BKN040
PROB30
TEMPO 1919/1922 6000 -SHRA BKN020



MET'MAP, your aeronautical weather chart ! - Copyright ORBIFLY December 2007 - Disclaimer

ORBIFLY MET'MAP TEAM :

Programming & Development : Alexandra Zaïnal
Concept & Development : Baudouin d'Aumeries
Co-Development & Prog : Marc-Olivier Méhu
Technical & hardware support : Manuel Goepfert

Contact : metmap@orbifly.com




SOURCES & CREDITS :

   NOAA